sensor_id;sensor_type;location;lat;lon;timestamp;pressure;altitude;pressure_sealevel;temperature;humidity
7614;BME280;3848;42.016;23.098;2022-09-06T00:00:06;97735.72;;;17.14;100.00
7614;BME280;3848;42.016;23.098;2022-09-06T00:02:34;97741.84;;;17.08;100.00
7614;BME280;3848;42.016;23.098;2022-09-06T00:05:02;97736.19;;;16.94;100.00
7614;BME280;3848;42.016;23.098;2022-09-06T00:07:30;97742.31;;;16.88;100.00
7614;BME280;3848;42.016;23.098;2022-09-06T00:09:56;97743.19;;;16.87;100.00
7614;BME280;3848;42.016;23.098;2022-09-06T00:12:23;97741.56;;;16.83;100.00
7614;BME280;3848;42.016;23.098;2022-09-06T00:14:52;97739.88;;;16.82;100.00
7614;BME280;3848;42.016;23.098;2022-09-06T00:17:19;97738.47;;;16.69;100.00
7614;BME280;3848;42.016;23.098;2022-09-06T00:19:46;97743.47;;;16.75;100.00
7614;BME280;3848;42.016;23.098;2022-09-06T00:22:12;97747.72;;;16.76;100.00
7614;BME280;3848;42.016;23.098;2022-09-06T00:24:39;97742.69;;;16.71;100.00
7614;BME280;3848;42.016;23.098;2022-09-06T00:27:07;97737.66;;;16.65;100.00
7614;BME280;3848;42.016;23.098;2022-09-06T00:29:34;97739.38;;;16.65;100.00
7614;BME280;3848;42.016;23.098;2022-09-06T00:32:02;97731.09;;;16.54;100.00
7614;BME280;3848;42.016;23.098;2022-09-06T00:34:29;97744.53;;;16.66;100.00
7614;BME280;3848;42.016;23.098;2022-09-06T00:36:56;97731.81;;;16.59;100.00
7614;BME280;3848;42.016;23.098;2022-09-06T00:39:23;97703.88;;;16.46;100.00
7614;BME280;3848;42.016;23.098;2022-09-06T00:41:51;97735.09;;;16.67;100.00
7614;BME280;3848;42.016;23.098;2022-09-06T00:44:18;97733.44;;;16.63;100.00
7614;BME280;3848;42.016;23.098;2022-09-06T00:46:46;97730.97;;;16.58;100.00
7614;BME280;3848;42.016;23.098;2022-09-06T00:49:19;97729.34;;;16.54;100.00
7614;BME280;3848;42.016;23.098;2022-09-06T00:51:50;97726.06;;;16.49;100.00
7614;BME280;3848;42.016;23.098;2022-09-06T00:54:18;97722.72;;;16.45;100.00
7614;BME280;3848;42.016;23.098;2022-09-06T00:56:45;97722.66;;;16.49;100.00
7614;BME280;3848;42.016;23.098;2022-09-06T00:59:12;97721.78;;;16.50;100.00
7614;BME280;3848;42.016;23.098;2022-09-06T01:01:39;97720.81;;;16.54;100.00
7614;BME280;3848;42.016;23.098;2022-09-06T01:04:06;97726.00;;;16.52;100.00
7614;BME280;3848;42.016;23.098;2022-09-06T01:06:43;97723.56;;;16.44;100.00
7614;BME280;3848;42.016;23.098;2022-09-06T01:09:21;97733.00;;;16.44;100.00
7614;BME280;3848;42.016;23.098;2022-09-06T01:12:02;97713.72;;;16.26;100.00
7614;BME280;3848;42.016;23.098;2022-09-06T01:14:39;97721.25;;;16.34;100.00
7614;BME280;3848;42.016;23.098;2022-09-06T01:17:16;97723.19;;;16.24;100.00
7614;BME280;3848;42.016;23.098;2022-09-06T01:20:31;97720.78;;;16.15;100.00
7614;BME280;3848;42.016;23.098;2022-09-06T01:23:35;97717.41;;;16.13;100.00
7614;BME280;3848;42.016;23.098;2022-09-06T01:26:26;97730.06;;;16.21;100.00
7614;BME280;3848;42.016;23.098;2022-09-06T01:28:57;97731.81;;;16.19;100.00
7614;BME280;3848;42.016;23.098;2022-09-06T01:31:31;97731.97;;;16.12;100.00
7614;BME280;3848;42.016;23.098;2022-09-06T01:34:13;97729.56;;;16.05;100.00
7614;BME280;3848;42.016;23.098;2022-09-06T01:36:47;97735.47;;;16.08;100.00
7614;BME280;3848;42.016;23.098;2022-09-06T01:39:22;97736.25;;;16.12;100.00
7614;BME280;3848;42.016;23.098;2022-09-06T01:41:49;97725.22;;;16.08;100.00
7614;BME280;3848;42.016;23.098;2022-09-06T01:44:19;97727.00;;;16.05;100.00
7614;BME280;3848;42.016;23.098;2022-09-06T01:46:52;97732.94;;;16.07;100.00
7614;BME280;3848;42.016;23.098;2022-09-06T01:49:27;97726.16;;;16.04;100.00
7614;BME280;3848;42.016;23.098;2022-09-06T01:52:07;97724.47;;;16.02;100.00
7614;BME280;3848;42.016;23.098;2022-09-06T01:54:50;97722.81;;;15.99;100.00
7614;BME280;3848;42.016;23.098;2022-09-06T01:57:34;97724.53;;;15.99;100.00
7614;BME280;3848;42.016;23.098;2022-09-06T02:00:08;97721.13;;;15.98;100.00
7614;BME280;3848;42.016;23.098;2022-09-06T02:02:44;97726.38;;;15.92;100.00
7614;BME280;3848;42.016;23.098;2022-09-06T02:05:20;97723.88;;;15.89;100.00
7614;BME280;3848;42.016;23.098;2022-09-06T02:07:52;97726.41;;;15.91;100.00
7614;BME280;3848;42.016;23.098;2022-09-06T02:10:24;97727.41;;;15.85;100.00
7614;BME280;3848;42.016;23.098;2022-09-06T02:12:56;97724.16;;;15.75;100.00
7614;BME280;3848;42.016;23.098;2022-09-06T02:15:28;97731.78;;;15.78;100.00
7614;BME280;3848;42.016;23.098;2022-09-06T02:17:59;97737.06;;;15.71;100.00
7614;BME280;3848;42.016;23.098;2022-09-06T02:20:29;97736.22;;;15.70;100.00
7614;BME280;3848;42.016;23.098;2022-09-06T02:23:00;97743.91;;;15.70;100.00
7614;BME280;3848;42.016;23.098;2022-09-06T02:25:33;97742.28;;;15.66;100.00
7614;BME280;3848;42.016;23.098;2022-09-06T02:28:02;97744.91;;;15.60;100.00
7614;BME280;3848;42.016;23.098;2022-09-06T02:30:33;97742.38;;;15.57;100.00
7614;BME280;3848;42.016;23.098;2022-09-06T02:33:05;97739.97;;;15.49;100.00
7614;BME280;3848;42.016;23.098;2022-09-06T02:35:41;97748.53;;;15.48;100.00
7614;BME280;3848;42.016;23.098;2022-09-06T02:38:09;97736.72;;;15.40;100.00
7614;BME280;3848;42.016;23.098;2022-09-06T02:40:36;97753.81;;;15.38;100.00
7614;BME280;3848;42.016;23.098;2022-09-06T02:43:03;97753.84;;;15.36;100.00
7614;BME280;3848;42.016;23.098;2022-09-06T02:45:31;97753.88;;;15.35;100.00
7614;BME280;3848;42.016;23.098;2022-09-06T02:47:58;97753.00;;;15.36;100.00
7614;BME280;3848;42.016;23.098;2022-09-06T02:50:25;97751.44;;;15.29;100.00
7614;BME280;3848;42.016;23.098;2022-09-06T02:53:00;97751.44;;;15.29;100.00
7614;BME280;3848;42.016;23.098;2022-09-06T02:55:28;97748.06;;;15.27;100.00
7614;BME280;3848;42.016;23.098;2022-09-06T02:57:55;97754.91;;;15.26;100.00
7614;BME280;3848;42.016;23.098;2022-09-06T03:00:23;97761.78;;;15.22;100.00
7614;BME280;3848;42.016;23.098;2022-09-06T03:02:51;97755.75;;;15.27;100.00
7614;BME280;3848;42.016;23.098;2022-09-06T03:05:17;97756.63;;;15.24;100.00
7614;BME280;3848;42.016;23.098;2022-09-06T03:07:44;97737.06;;;15.20;100.00
7614;BME280;3848;42.016;23.098;2022-09-06T03:10:11;97758.22;;;15.31;100.00
7614;BME280;3848;42.016;23.098;2022-09-06T03:12:38;97742.06;;;15.28;100.00
7614;BME280;3848;42.016;23.098;2022-09-06T03:15:05;97756.44;;;15.35;100.00
7614;BME280;3848;42.016;23.098;2022-09-06T03:17:32;97756.50;;;15.32;100.00
7614;BME280;3848;42.016;23.098;2022-09-06T03:20:01;97755.66;;;15.31;100.00
7614;BME280;3848;42.016;23.098;2022-09-06T03:22:28;97759.09;;;15.30;100.00
7614;BME280;3848;42.016;23.098;2022-09-06T03:24:55;97765.06;;;15.31;100.00
7614;BME280;3848;42.016;23.098;2022-09-06T03:27:23;97756.50;;;15.32;100.00
7614;BME280;3848;42.016;23.098;2022-09-06T03:29:50;97760.75;;;15.33;100.00
7614;BME280;3848;42.016;23.098;2022-09-06T03:32:16;97762.47;;;15.32;100.00
7614;BME280;3848;42.016;23.098;2022-09-06T03:34:43;97762.59;;;15.24;100.00
7614;BME280;3848;42.016;23.098;2022-09-06T03:37:11;97768.66;;;15.17;100.00
7614;BME280;3848;42.016;23.098;2022-09-06T03:39:38;97761.88;;;15.15;100.00
7614;BME280;3848;42.016;23.098;2022-09-06T03:42:05;97767.88;;;15.14;100.00
7614;BME280;3848;42.016;23.098;2022-09-06T03:44:32;97776.50;;;15.08;100.00
7614;BME280;3848;42.016;23.098;2022-09-06T03:46:59;97769.75;;;15.04;100.00
7614;BME280;3848;42.016;23.098;2022-09-06T03:49:26;97774.13;;;14.96;100.00
7614;BME280;3848;42.016;23.098;2022-09-06T03:51:52;97769.81;;;14.98;100.00
7614;BME280;3848;42.016;23.098;2022-09-06T03:54:21;97772.41;;;14.97;100.00
7614;BME280;3848;42.016;23.098;2022-09-06T03:56:48;97782.66;;;14.95;100.00
7614;BME280;3848;42.016;23.098;2022-09-06T03:59:15;97782.63;;;14.98;100.00
7614;BME280;3848;42.016;23.098;2022-09-06T04:01:42;97780.88;;;15.03;100.00
7614;BME280;3848;42.016;23.098;2022-09-06T04:04:09;97764.72;;;14.98;100.00
7614;BME280;3848;42.016;23.098;2022-09-06T04:06:36;97779.94;;;15.07;100.00
7614;BME280;3848;42.016;23.098;2022-09-06T04:09:03;97786.75;;;15.08;100.00
7614;BME280;3848;42.016;23.098;2022-09-06T04:11:31;97783.41;;;15.03;100.00
7614;BME280;3848;42.016;23.098;2022-09-06T04:13:58;97794.44;;;15.08;100.00
7614;BME280;3848;42.016;23.098;2022-09-06T04:16:25;97791.88;;;15.08;100.00
7614;BME280;3848;42.016;23.098;2022-09-06T04:18:51;97788.38;;;15.12;100.00
7614;BME280;3848;42.016;23.098;2022-09-06T04:21:18;97784.19;;;15.08;100.00
7614;BME280;3848;42.016;23.098;2022-09-06T04:23:45;97788.34;;;15.15;100.00
7614;BME280;3848;42.016;23.098;2022-09-06T04:26:12;97790.00;;;15.18;100.00
7614;BME280;3848;42.016;23.098;2022-09-06T04:28:40;97789.22;;;15.13;100.00
7614;BME280;3848;42.016;23.098;2022-09-06T04:31:08;97790.13;;;15.10;100.00
7614;BME280;3848;42.016;23.098;2022-09-06T04:33:35;97792.53;;;15.19;100.00
7614;BME280;3848;42.016;23.098;2022-09-06T04:36:05;97790.00;;;15.18;100.00
7614;BME280;3848;42.016;23.098;2022-09-06T04:38:35;97790.75;;;15.24;100.00
7614;BME280;3848;42.016;23.098;2022-09-06T04:41:03;97784.75;;;15.27;100.00
7614;BME280;3848;42.016;23.098;2022-09-06T04:43:30;97790.75;;;15.24;100.00
7614;BME280;3848;42.016;23.098;2022-09-06T04:46:03;97788.09;;;15.31;100.00
7614;BME280;3848;42.016;23.098;2022-09-06T04:48:30;97791.72;;;15.17;100.00
7614;BME280;3848;42.016;23.098;2022-09-06T04:50:57;97785.75;;;15.17;100.00
7614;BME280;3848;42.016;23.098;2022-09-06T04:53:24;97785.72;;;15.18;100.00
7614;BME280;3848;42.016;23.098;2022-09-06T04:55:51;97772.09;;;15.16;100.00
7614;BME280;3848;42.016;23.098;2022-09-06T04:58:18;97776.28;;;15.23;100.00
7614;BME280;3848;42.016;23.098;2022-09-06T05:00:45;97780.38;;;15.34;100.00
7614;BME280;3848;42.016;23.098;2022-09-06T05:03:13;97788.00;;;15.37;100.00
7614;BME280;3848;42.016;23.098;2022-09-06T05:05:40;97777.69;;;15.40;100.00
7614;BME280;3848;42.016;23.098;2022-09-06T05:08:07;97749.03;;;15.18;100.00
7614;BME280;3848;42.016;23.098;2022-09-06T05:10:34;97781.91;;;15.44;100.00
7614;BME280;3848;42.016;23.098;2022-09-06T05:13:00;97777.59;;;15.46;100.00
7614;BME280;3848;42.016;23.098;2022-09-06T05:15:27;97781.03;;;15.45;100.00
7614;BME280;3848;42.016;23.098;2022-09-06T05:18:00;97787.91;;;15.43;100.00
7614;BME280;3848;42.016;23.098;2022-09-06T05:20:35;97784.41;;;15.47;100.00
7614;BME280;3848;42.016;23.098;2022-09-06T05:23:02;97780.97;;;15.49;100.00
7614;BME280;3848;42.016;23.098;2022-09-06T05:25:28;97782.59;;;15.53;100.00
7614;BME280;3848;42.016;23.098;2022-09-06T05:27:55;97779.13;;;15.56;100.00
7614;BME280;3848;42.016;23.098;2022-09-06T05:30:22;97773.88;;;15.65;100.00
7614;BME280;3848;42.016;23.098;2022-09-06T05:32:49;97783.34;;;15.62;100.00
7614;BME280;3848;42.016;23.098;2022-09-06T05:35:16;97780.75;;;15.63;100.00
7614;BME280;3848;42.016;23.098;2022-09-06T05:37:44;97767.97;;;15.60;100.00
7614;BME280;3848;42.016;23.098;2022-09-06T05:40:11;97774.59;;;15.73;100.00
7614;BME280;3848;42.016;23.098;2022-09-06T05:42:38;97780.41;;;15.83;100.00
7614;BME280;3848;42.016;23.098;2022-09-06T05:45:06;97779.31;;;15.95;100.00
7614;BME280;3848;42.016;23.098;2022-09-06T05:47:33;97781.72;;;16.04;100.00
7614;BME280;3848;42.016;23.098;2022-09-06T05:50:01;97777.22;;;16.15;100.00
7614;BME280;3848;42.016;23.098;2022-09-06T05:52:28;97771.91;;;16.24;100.00
7614;BME280;3848;42.016;23.098;2022-09-06T05:54:56;97768.22;;;16.36;100.00
7614;BME280;3848;42.016;23.098;2022-09-06T05:57:23;97769.78;;;16.43;100.00
7614;BME280;3848;42.016;23.098;2022-09-06T05:59:50;97763.63;;;16.52;100.00
7614;BME280;3848;42.016;23.098;2022-09-06T06:02:18;97758.34;;;16.58;100.00
7614;BME280;3848;42.016;23.098;2022-09-06T06:04:44;97759.84;;;16.69;100.00
7614;BME280;3848;42.016;23.098;2022-09-06T06:07:12;97757.94;;;16.77;100.00
7614;BME280;3848;42.016;23.098;2022-09-06T06:09:39;97759.44;;;16.88;100.00
7614;BME280;3848;42.016;23.098;2022-09-06T06:12:07;97749.75;;;16.99;100.00
7614;BME280;3848;42.016;23.098;2022-09-06T06:14:34;97747.81;;;17.09;100.00
7614;BME280;3848;42.016;23.098;2022-09-06T06:17:01;97752.72;;;17.18;100.00
7614;BME280;3848;42.016;23.098;2022-09-06T06:19:28;97755.94;;;17.26;100.00
7614;BME280;3848;42.016;23.098;2022-09-06T06:21:55;97753.19;;;17.33;100.00
7614;BME280;3848;42.016;23.098;2022-09-06T06:24:22;97751.19;;;17.45;100.00
7614;BME280;3848;42.016;23.098;2022-09-06T06:26:49;97751.94;;;17.48;100.00
7614;BME280;3848;42.016;23.098;2022-09-06T06:29:17;97753.44;;;17.57;100.00
7614;BME280;3848;42.016;23.098;2022-09-06T06:31:44;97749.84;;;17.64;100.00
7614;BME280;3848;42.016;23.098;2022-09-06T06:34:11;97751.47;;;17.66;100.00
7614;BME280;3848;42.016;23.098;2022-09-06T06:36:38;97750.56;;;17.69;100.00
7614;BME280;3848;42.016;23.098;2022-09-06T06:39:06;97752.22;;;17.73;100.00
7614;BME280;3848;42.016;23.098;2022-09-06T06:41:34;97745.44;;;17.71;100.00
7614;BME280;3848;42.016;23.098;2022-09-06T06:44:02;97741.63;;;17.84;100.00
7614;BME280;3848;42.016;23.098;2022-09-06T06:46:32;97742.06;;;18.00;100.00
7614;BME280;3848;42.016;23.098;2022-09-06T06:49:00;97738.53;;;18.02;100.00
7614;BME280;3848;42.016;23.098;2022-09-06T06:51:28;97732.50;;;18.03;100.00
7614;BME280;3848;42.016;23.098;2022-09-06T06:53:55;97738.13;;;18.17;100.00
7614;BME280;3848;42.016;23.098;2022-09-06T06:56:24;97733.78;;;18.19;100.00
7614;BME280;3848;42.016;23.098;2022-09-06T06:58:53;97721.88;;;18.15;100.00
7614;BME280;3848;42.016;23.098;2022-09-06T07:01:21;97733.06;;;18.14;100.00
7614;BME280;3848;42.016;23.098;2022-09-06T07:03:49;97739.91;;;18.15;100.00
7614;BME280;3848;42.016;23.098;2022-09-06T07:06:17;97732.22;;;18.14;100.00
7614;BME280;3848;42.016;23.098;2022-09-06T07:08:45;97732.00;;;18.21;100.00
7614;BME280;3848;42.016;23.098;2022-09-06T07:11:14;97727.94;;;18.14;100.00
7614;BME280;3848;42.016;23.098;2022-09-06T07:13:41;97736.88;;;18.31;100.00
7614;BME280;3848;42.016;23.098;2022-09-06T07:16:11;97741.84;;;18.37;100.00
7614;BME280;3848;42.016;23.098;2022-09-06T07:18:38;97737.22;;;18.48;100.00
7614;BME280;3848;42.016;23.098;2022-09-06T07:21:10;97730.13;;;18.56;100.00
7614;BME280;3848;42.016;23.098;2022-09-06T07:23:37;97736.78;;;18.63;100.00
7614;BME280;3848;42.016;23.098;2022-09-06T07:26:05;97734.91;;;18.68;100.00
7614;BME280;3848;42.016;23.098;2022-09-06T07:28:32;97727.72;;;18.79;100.00
7614;BME280;3848;42.016;23.098;2022-09-06T07:30:58;97731.03;;;18.83;100.00
7614;BME280;3848;42.016;23.098;2022-09-06T07:33:26;97696.06;;;18.76;100.00
7614;BME280;3848;42.016;23.098;2022-09-06T07:35:58;97689.66;;;18.87;100.00
7614;BME280;3848;42.016;23.098;2022-09-06T07:38:30;97736.63;;;19.22;100.00
7614;BME280;3848;42.016;23.098;2022-09-06T07:40:59;97723.38;;;19.33;100.00
7614;BME280;3848;42.016;23.098;2022-09-06T07:43:27;97726.47;;;19.44;100.00
7614;BME280;3848;42.016;23.098;2022-09-06T07:45:58;97725.63;;;19.43;100.00
7614;BME280;3848;42.016;23.098;2022-09-06T07:48:27;97727.03;;;19.52;100.00
7614;BME280;3848;42.016;23.098;2022-09-06T07:50:54;97721.66;;;19.60;100.00
7614;BME280;3848;42.016;23.098;2022-09-06T07:53:20;97726.38;;;19.72;100.00
7614;BME280;3848;42.016;23.098;2022-09-06T07:55:49;97728.66;;;19.81;100.00
7614;BME280;3848;42.016;23.098;2022-09-06T07:58:15;97736.16;;;19.87;100.00
7614;BME280;3848;42.016;23.098;2022-09-06T08:00:42;97726.63;;;19.89;100.00
7614;BME280;3848;42.016;23.098;2022-09-06T08:03:09;97724.88;;;19.90;100.00
7614;BME280;3848;42.016;23.098;2022-09-06T08:05:36;97726.44;;;19.94;100.00
7614;BME280;3848;42.016;23.098;2022-09-06T08:08:03;97728.78;;;20.01;100.00
7614;BME280;3848;42.016;23.098;2022-09-06T08:10:30;97714.75;;;20.08;100.00
7614;BME280;3848;42.016;23.098;2022-09-06T08:12:58;97720.13;;;20.26;100.00
7614;BME280;3848;42.016;23.098;2022-09-06T08:15:25;97712.69;;;20.42;100.00
7614;BME280;3848;42.016;23.098;2022-09-06T08:17:54;97713.03;;;20.54;100.00
7614;BME280;3848;42.016;23.098;2022-09-06T08:20:21;97707.69;;;20.59;100.00
7614;BME280;3848;42.016;23.098;2022-09-06T08:22:47;97707.47;;;20.65;100.00
7614;BME280;3848;42.016;23.098;2022-09-06T08:25:14;97700.31;;;20.72;100.00
7614;BME280;3848;42.016;23.098;2022-09-06T08:27:41;97690.28;;;20.86;100.00
7614;BME280;3848;42.016;23.098;2022-09-06T08:30:10;97685.91;;;21.08;100.00
7614;BME280;3848;42.016;23.098;2022-09-06T08:32:37;97685.31;;;21.22;100.00
7614;BME280;3848;42.016;23.098;2022-09-06T08:35:06;97688.84;;;21.41;100.00
7614;BME280;3848;42.016;23.098;2022-09-06T08:37:32;97666.13;;;21.49;100.00
7614;BME280;3848;42.016;23.098;2022-09-06T08:39:59;97675.31;;;21.75;100.00
7614;BME280;3848;42.016;23.098;2022-09-06T08:42:26;97668.25;;;21.79;100.00
7614;BME280;3848;42.016;23.098;2022-09-06T08:44:53;97671.16;;;21.91;100.00
7614;BME280;3848;42.016;23.098;2022-09-06T08:47:24;97671.38;;;22.06;100.00
7614;BME280;3848;42.016;23.098;2022-09-06T08:49:53;97672.94;;;22.29;100.00
7614;BME280;3848;42.016;23.098;2022-09-06T08:52:46;97658.78;;;22.36;100.00
7614;BME280;3848;42.016;23.098;2022-09-06T08:55:28;97658.59;;;22.58;100.00
7614;BME280;3848;42.016;23.098;2022-09-06T08:58:09;97642.91;;;22.97;100.00
7614;BME280;3848;42.016;23.098;2022-09-06T09:00:39;97653.56;;;23.60;98.84
7614;BME280;3848;42.016;23.098;2022-09-06T09:03:11;97634.13;;;24.00;95.90
7614;BME280;3848;42.016;23.098;2022-09-06T09:05:41;97642.38;;;24.40;87.22
7614;BME280;3848;42.016;23.098;2022-09-06T09:08:14;97637.59;;;24.78;92.55
7614;BME280;3848;42.016;23.098;2022-09-06T09:10:47;97628.00;;;25.24;91.73
7614;BME280;3848;42.016;23.098;2022-09-06T09:13:19;97622.75;;;25.68;79.16
7614;BME280;3848;42.016;23.098;2022-09-06T09:15:47;97612.09;;;26.14;81.84
7614;BME280;3848;42.016;23.098;2022-09-06T09:18:21;97608.78;;;26.39;68.47
7614;BME280;3848;42.016;23.098;2022-09-06T09:20:49;97604.09;;;26.71;75.93
7614;BME280;3848;42.016;23.098;2022-09-06T09:23:16;97596.13;;;26.87;65.14
7614;BME280;3848;42.016;23.098;2022-09-06T09:25:43;97591.06;;;27.11;63.18
7614;BME280;3848;42.016;23.098;2022-09-06T09:28:15;97575.38;;;27.23;61.29
7614;BME280;3848;42.016;23.098;2022-09-06T09:30:48;97582.91;;;27.66;62.87
7614;BME280;3848;42.016;23.098;2022-09-06T09:33:26;97575.47;;;27.73;59.88
7614;BME280;3848;42.016;23.098;2022-09-06T09:35:54;97575.56;;;27.58;58.84
7614;BME280;3848;42.016;23.098;2022-09-06T09:38:23;97574.81;;;27.94;59.67
7614;BME280;3848;42.016;23.098;2022-09-06T09:40:53;97565.19;;;28.19;59.14
7614;BME280;3848;42.016;23.098;2022-09-06T09:43:22;97554.19;;;28.50;58.97
7614;BME280;3848;42.016;23.098;2022-09-06T09:46:15;97560.47;;;28.83;58.08
7614;BME280;3848;42.016;23.098;2022-09-06T09:48:58;97551.16;;;29.14;57.58
7614;BME280;3848;42.016;23.098;2022-09-06T09:51:26;97541.56;;;29.48;55.32
7614;BME280;3848;42.016;23.098;2022-09-06T09:53:55;97541.38;;;29.94;55.70
7614;BME280;3848;42.016;23.098;2022-09-06T09:56:29;97525.66;;;30.38;53.98
7614;BME280;3848;42.016;23.098;2022-09-06T09:58:59;97523.19;;;30.68;54.87
7614;BME280;3848;42.016;23.098;2022-09-06T10:01:28;97518.31;;;30.84;51.40
7614;BME280;3848;42.016;23.098;2022-09-06T10:04:02;97514.38;;;31.00;51.44
7614;BME280;3848;42.016;23.098;2022-09-06T10:06:30;97514.88;;;31.14;49.22
7614;BME280;3848;42.016;23.098;2022-09-06T10:08:57;97493.81;;;31.05;46.92
7614;BME280;3848;42.016;23.098;2022-09-06T10:11:38;97505.22;;;30.94;47.40
7614;BME280;3848;42.016;23.098;2022-09-06T10:14:10;97503.88;;;31.00;50.63
7614;BME280;3848;42.016;23.098;2022-09-06T10:16:41;97498.66;;;31.30;47.71
7614;BME280;3848;42.016;23.098;2022-09-06T10:19:24;97483.31;;;31.05;47.58
7614;BME280;3848;42.016;23.098;2022-09-06T10:22:03;97492.03;;;31.26;46.95
7614;BME280;3848;42.016;23.098;2022-09-06T10:24:44;97494.31;;;31.19;46.30
7614;BME280;3848;42.016;23.098;2022-09-06T10:27:16;97494.38;;;31.29;47.75
7614;BME280;3848;42.016;23.098;2022-09-06T10:29:51;97497.38;;;31.65;46.28
7614;BME280;3848;42.016;23.098;2022-09-06T10:32:29;97487.22;;;31.91;46.93
7614;BME280;3848;42.016;23.098;2022-09-06T10:35:07;97482.00;;;32.10;45.74
7614;BME280;3848;42.016;23.098;2022-09-06T10:37:48;97468.84;;;32.39;44.30
7614;BME280;3848;42.016;23.098;2022-09-06T10:40:28;97479.31;;;31.81;44.87
7614;BME280;3848;42.016;23.098;2022-09-06T10:42:58;97479.47;;;31.89;44.12
7614;BME280;3848;42.016;23.098;2022-09-06T10:45:44;97477.00;;;31.88;43.81
7614;BME280;3848;42.016;23.098;2022-09-06T10:48:16;97467.41;;;31.77;42.04
7614;BME280;3848;42.016;23.098;2022-09-06T10:50:50;97470.06;;;31.96;44.37
7614;BME280;3848;42.016;23.098;2022-09-06T10:53:29;97468.16;;;32.08;42.21
7614;BME280;3848;42.016;23.098;2022-09-06T10:56:02;97458.34;;;32.29;42.64
7614;BME280;3848;42.016;23.098;2022-09-06T10:58:32;97460.94;;;32.58;39.92
7614;BME280;3848;42.016;23.098;2022-09-06T11:01:03;97459.53;;;32.64;40.32
7614;BME280;3848;42.016;23.098;2022-09-06T11:03:34;97459.59;;;33.01;39.36
7614;BME280;3848;42.016;23.098;2022-09-06T11:06:07;97449.06;;;33.28;38.68
7614;BME280;3848;42.016;23.098;2022-09-06T11:08:40;97450.78;;;33.47;37.64
7614;BME280;3848;42.016;23.098;2022-09-06T11:11:11;97440.03;;;33.41;35.96
7614;BME280;3848;42.016;23.098;2022-09-06T11:13:41;97448.59;;;33.43;36.15
7614;BME280;3848;42.016;23.098;2022-09-06T11:16:12;97441.59;;;33.24;37.43
7614;BME280;3848;42.016;23.098;2022-09-06T11:18:46;97436.78;;;33.19;35.99
7614;BME280;3848;42.016;23.098;2022-09-06T11:21:53;97438.56;;;33.74;36.45
7614;BME280;3848;42.016;23.098;2022-09-06T11:24:35;97410.34;;;34.02;34.98
7614;BME280;3848;42.016;23.098;2022-09-06T11:27:10;97429.16;;;34.42;33.88
7614;BME280;3848;42.016;23.098;2022-09-06T11:29:43;97427.84;;;34.29;32.97
7614;BME280;3848;42.016;23.098;2022-09-06T11:32:31;97428.94;;;34.36;34.66
7614;BME280;3848;42.016;23.098;2022-09-06T11:35:00;97423.09;;;34.32;32.19
7614;BME280;3848;42.016;23.098;2022-09-06T11:37:32;97416.94;;;34.41;33.45
7614;BME280;3848;42.016;23.098;2022-09-06T11:40:08;97419.81;;;34.12;31.94
7614;BME280;3848;42.016;23.098;2022-09-06T11:42:40;97418.75;;;34.23;31.33
7614;BME280;3848;42.016;23.098;2022-09-06T11:45:39;97405.53;;;34.67;31.93
7614;BME280;3848;42.016;23.098;2022-09-06T11:48:32;97408.03;;;34.68;32.20
7614;BME280;3848;42.016;23.098;2022-09-06T11:51:02;97398.47;;;34.75;31.21
7614;BME280;3848;42.016;23.098;2022-09-06T11:53:33;97399.91;;;34.88;30.98
7614;BME280;3848;42.016;23.098;2022-09-06T11:56:22;97363.63;;;34.64;30.53
7614;BME280;3848;42.016;23.098;2022-09-06T11:58:56;97388.97;;;34.82;31.83
7614;BME280;3848;42.016;23.098;2022-09-06T12:01:34;97376.06;;;34.79;32.18
7614;BME280;3848;42.016;23.098;2022-09-06T12:04:10;97371.91;;;35.03;33.63
7614;BME280;3848;42.016;23.098;2022-09-06T12:06:39;97373.47;;;35.22;31.91
7614;BME280;3848;42.016;23.098;2022-09-06T12:09:29;97367.84;;;34.82;31.88
7614;BME280;3848;42.016;23.098;2022-09-06T12:11:57;97367.00;;;34.82;31.59
7614;BME280;3848;42.016;23.098;2022-09-06T12:14:34;97364.16;;;35.09;30.66
7614;BME280;3848;42.016;23.098;2022-09-06T12:17:25;97368.59;;;35.43;30.70
7614;BME280;3848;42.016;23.098;2022-09-06T12:19:57;97357.19;;;35.51;30.33
7614;BME280;3848;42.016;23.098;2022-09-06T12:22:54;97353.09;;;35.64;30.92
7614;BME280;3848;42.016;23.098;2022-09-06T12:25:57;97356.84;;;35.54;32.50
7614;BME280;3848;42.016;23.098;2022-09-06T12:28:37;97346.13;;;35.80;32.31
7614;BME280;3848;42.016;23.098;2022-09-06T12:31:23;97332.25;;;35.61;29.83
7614;BME280;3848;42.016;23.098;2022-09-06T12:33:50;97340.16;;;35.45;30.88
7614;BME280;3848;42.016;23.098;2022-09-06T12:36:20;97336.59;;;35.12;32.75
7614;BME280;3848;42.016;23.098;2022-09-06T12:38:56;97326.56;;;35.24;32.36
7614;BME280;3848;42.016;23.098;2022-09-06T12:41:26;97327.72;;;35.29;31.98
7614;BME280;3848;42.016;23.098;2022-09-06T12:43:54;97321.31;;;35.56;31.30
7614;BME280;3848;42.016;23.098;2022-09-06T12:46:23;97320.00;;;35.52;31.28
7614;BME280;3848;42.016;23.098;2022-09-06T12:49:01;97318.69;;;35.56;31.92
7614;BME280;3848;42.016;23.098;2022-09-06T12:51:28;97304.81;;;35.70;31.61
7614;BME280;3848;42.016;23.098;2022-09-06T12:53:57;97313.41;;;35.72;31.17
7614;BME280;3848;42.016;23.098;2022-09-06T12:56:27;97305.31;;;35.90;32.48
7614;BME280;3848;42.016;23.098;2022-09-06T12:59:09;97269.44;;;35.71;31.66
7614;BME280;3848;42.016;23.098;2022-09-06T13:01:41;97301.81;;;35.82;30.96
7614;BME280;3848;42.016;23.098;2022-09-06T13:04:14;97300.50;;;36.10;32.50
7614;BME280;3848;42.016;23.098;2022-09-06T13:06:46;97295.50;;;36.23;31.03
7614;BME280;3848;42.016;23.098;2022-09-06T13:09:17;97299.38;;;36.04;30.84
7614;BME280;3848;42.016;23.098;2022-09-06T13:11:48;97295.03;;;35.79;31.10
7614;BME280;3848;42.016;23.098;2022-09-06T13:14:19;97287.78;;;35.49;31.32
7614;BME280;3848;42.016;23.098;2022-09-06T13:16:49;97290.91;;;35.60;31.53
7614;BME280;3848;42.016;23.098;2022-09-06T13:19:19;97298.84;;;35.36;32.35
7614;BME280;3848;42.016;23.098;2022-09-06T13:21:54;97296.16;;;35.28;31.51